createdAt,value
2018-12-24T00:01:00.015Z,8.00
2018-12-24T00:02:24.068Z,8.45
2018-12-24T00:05:12.459Z,5.60
2018-12-24T00:06:36.569Z,6.65
2018-12-24T00:07:41.486Z,6.15
2018-12-24T00:09:05.637Z,6.00
2018-12-24T00:11:34.483Z,4.28
2018-12-24T00:13:18.000Z,5.83
2018-12-24T00:15:47.136Z,5.85
2018-12-24T00:17:11.116Z,5.75
2018-12-24T00:18:16.327Z,6.17
2018-12-24T00:19:21.315Z,5.15
2018-12-24T00:20:26.227Z,6.25
2018-12-24T00:21:31.139Z,6.05
2018-12-24T00:24:00.316Z,6.83
2018-12-24T00:25:05.291Z,7.55
2018-12-24T00:26:10.837Z,7.00
2018-12-24T00:27:15.753Z,6.00
2018-12-24T00:28:20.659Z,6.83
2018-12-24T00:29:25.575Z,5.58
2018-12-24T00:30:30.501Z,5.60
2018-12-24T00:31:35.413Z,6.47
2018-12-24T00:32:40.310Z,4.87
2018-12-24T00:33:45.210Z,5.90
2018-12-24T00:34:50.112Z,4.75
2018-12-24T00:35:55.276Z,4.05
2018-12-24T00:37:00.442Z,4.45
2018-12-24T00:38:05.354Z,5.72
2018-12-24T00:39:10.266Z,5.40
2018-12-24T00:40:15.163Z,4.62
2018-12-24T00:41:20.079Z,4.00
2018-12-24T00:42:25.268Z,5.10
2018-12-24T00:43:49.393Z,3.60
2018-12-24T00:44:54.311Z,5.25
2018-12-24T00:46:18.424Z,4.22
2018-12-24T00:47:23.657Z,4.58
2018-12-24T00:48:28.579Z,4.30
2018-12-24T00:49:52.677Z,4.40
2018-12-24T00:50:57.580Z,4.40
2018-12-24T00:52:02.478Z,4.00
2018-12-24T00:53:07.431Z,4.00
2018-12-24T00:54:12.330Z,4.70
2018-12-24T00:55:17.587Z,4.40
2018-12-24T00:56:34.343Z,3.98
2018-12-24T00:59:21.068Z,3.75
2018-12-24T01:00:25.977Z,4.47
2018-12-24T01:01:30.881Z,4.35
2018-12-24T01:02:35.781Z,4.53
2018-12-24T01:03:40.679Z,5.08
2018-12-24T01:04:45.602Z,4.40
2018-12-24T01:05:51.163Z,3.70
2018-12-24T01:06:56.063Z,4.33
2018-12-24T01:08:01.428Z,4.50
2018-12-24T01:09:27.136Z,4.72
2018-12-24T01:10:32.064Z,3.70
2018-12-24T01:11:36.962Z,4.40
2018-12-24T01:12:41.868Z,4.97
2018-12-24T01:13:46.775Z,4.67
2018-12-24T01:19:15.323Z,4.58
2018-12-24T01:20:39.420Z,4.03
2018-12-24T01:23:08.301Z,4.12
2018-12-24T01:24:13.449Z,3.80
2018-12-24T01:28:18.309Z,4.45
2018-12-24T01:29:23.178Z,4.30
2018-12-24T01:30:28.088Z,4.45
2018-12-24T01:33:52.929Z,4.05
2018-12-24T01:34:57.844Z,4.97
2018-12-24T01:37:27.044Z,4.10
2018-12-24T01:38:31.958Z,5.05
2018-12-24T01:42:36.629Z,4.20
2018-12-24T01:43:41.525Z,4.40
2018-12-24T01:44:46.429Z,5.22
2018-12-24T01:45:51.614Z,4.53
2018-12-24T01:46:57.048Z,5.25
2018-12-24T01:48:01.944Z,4.47
2018-12-24T01:50:50.211Z,4.83
2018-12-24T01:53:19.093Z,5.35
2018-12-24T01:54:23.996Z,5.28
2018-12-24T01:55:48.097Z,5.12
2018-12-24T02:00:17.854Z,6.45
2018-12-24T02:01:22.836Z,5.90
2018-12-24T02:02:28.079Z,6.45
2018-12-24T02:03:33.001Z,6.25
2018-12-24T02:04:37.895Z,6.08
2018-12-24T02:07:12.389Z,5.90
2018-12-24T02:09:41.328Z,5.85
2018-12-24T02:10:46.229Z,5.95
2018-12-24T02:12:10.539Z,6.62
2018-12-24T02:13:34.662Z,6.97
2018-12-24T02:14:39.891Z,6.37
2018-12-24T02:17:08.735Z,7.05
2018-12-24T02:18:33.048Z,7.95
2018-12-24T02:21:07.693Z,7.05
2018-12-24T02:22:13.011Z,8.25
2018-12-24T02:23:38.599Z,8.03
2018-12-24T02:24:43.861Z,7.97
2018-12-24T02:25:48.781Z,7.72
2018-12-24T02:26:53.716Z,8.45
2018-12-24T02:27:58.623Z,6.95
2018-12-24T02:29:03.535Z,7.08
2018-12-24T02:30:27.525Z,7.33
2018-12-24T02:31:51.871Z,7.05
2018-12-24T02:32:56.794Z,7.62
2018-12-24T02:35:25.634Z,6.67
2018-12-24T02:36:30.535Z,7.15
2018-12-24T02:37:35.775Z,7.15
2018-12-24T02:38:40.703Z,7.75
2018-12-24T02:39:45.693Z,7.70
2018-12-24T02:40:50.900Z,6.87
2018-12-24T02:41:55.823Z,6.15
2018-12-24T02:48:20.548Z,6.72
2018-12-24T02:49:25.447Z,6.15
2018-12-24T02:50:30.353Z,7.35
2018-12-24T02:51:35.263Z,6.22
2018-12-24T02:52:59.559Z,7.10
2018-12-24T02:55:35.173Z,6.62
2018-12-24T02:56:40.366Z,5.97
2018-12-24T02:57:45.280Z,6.78
2018-12-24T02:58:50.191Z,6.70
2018-12-24T03:00:06.973Z,7.15
2018-12-24T03:01:12.152Z,7.42
2018-12-24T03:02:17.067Z,5.95
2018-12-24T03:04:45.927Z,5.50
2018-12-24T03:05:50.843Z,6.30
2018-12-24T03:06:55.760Z,6.60
2018-12-24T03:08:00.660Z,6.67
2018-12-24T03:09:46.326Z,6.17
2018-12-24T03:10:51.565Z,6.25
2018-12-24T03:11:56.784Z,6.60
2018-12-24T03:13:03.005Z,6.58
2018-12-24T03:14:27.802Z,5.50
2018-12-24T03:15:52.166Z,6.40
2018-12-24T03:16:57.409Z,6.00
2018-12-24T03:18:02.911Z,6.35
2018-12-24T03:19:07.842Z,5.90
2018-12-24T03:20:12.738Z,5.55
2018-12-24T03:21:17.644Z,7.12
2018-12-24T03:22:41.625Z,6.08
2018-12-24T03:23:46.514Z,6.70
2018-12-24T03:24:51.435Z,6.50
2018-12-24T03:25:56.333Z,6.60
2018-12-24T03:28:44.299Z,5.22
2018-12-24T03:29:49.210Z,6.03
2018-12-24T03:30:54.153Z,6.78
2018-12-24T03:31:59.042Z,5.70
2018-12-24T03:33:03.966Z,6.30
2018-12-24T03:34:08.862Z,6.97
2018-12-24T03:35:32.838Z,6.45
2018-12-24T03:36:58.963Z,6.75
2018-12-24T03:38:23.332Z,5.58
2018-12-24T03:41:11.679Z,5.97
2018-12-24T03:42:16.597Z,5.90
2018-12-24T03:43:21.514Z,7.90
2018-12-24T03:44:26.703Z,7.05
2018-12-24T03:45:31.905Z,6.40
2018-12-24T03:46:36.804Z,7.05
2018-12-24T03:47:41.756Z,6.45
2018-12-24T03:50:10.911Z,6.90
2018-12-24T03:54:46.527Z,6.75
2018-12-24T03:55:51.731Z,7.22
2018-12-24T03:58:22.695Z,6.80
2018-12-24T04:02:34.331Z,6.35
2018-12-24T04:03:39.230Z,6.30
2018-12-24T04:06:08.070Z,6.50
2018-12-24T04:07:13.296Z,6.78
2018-12-24T04:08:21.310Z,6.55
2018-12-24T04:09:45.301Z,6.90
2018-12-24T04:11:09.590Z,5.33
2018-12-24T04:13:38.782Z,6.37
2018-12-24T04:14:43.693Z,6.33
2018-12-24T04:17:12.604Z,7.10
2018-12-24T04:19:43.974Z,7.10
2018-12-24T04:20:48.886Z,7.60
2018-12-24T04:21:54.069Z,6.75
2018-12-24T04:24:23.184Z,6.97
2018-12-24T04:25:28.111Z,6.40
2018-12-24T04:26:33.743Z,7.20
2018-12-24T04:27:41.987Z,6.50
2018-12-24T04:29:05.435Z,7.65
2018-12-24T04:30:29.412Z,6.42
2018-12-24T04:31:34.632Z,6.85
2018-12-24T04:32:39.528Z,7.00
2018-12-24T04:33:44.445Z,7.30
2018-12-24T04:34:49.350Z,6.87
2018-12-24T04:35:54.254Z,7.85
2018-12-24T04:36:59.719Z,6.33
2018-12-24T04:38:04.930Z,6.20
2018-12-24T04:39:09.851Z,9.20
2018-12-24T04:40:14.751Z,6.85
2018-12-24T04:42:43.952Z,6.50
2018-12-24T04:43:48.848Z,5.97
2018-12-24T04:46:17.688Z,6.05
2018-12-24T04:47:22.589Z,6.60
2018-12-24T04:48:27.502Z,6.92
2018-12-24T04:49:32.404Z,6.90
2018-12-24T04:50:37.583Z,5.85
2018-12-24T04:53:06.426Z,6.45
2018-12-24T04:54:11.352Z,6.75
2018-12-24T04:55:16.266Z,7.40
2018-12-24T04:56:21.171Z,6.22
2018-12-24T04:57:26.405Z,5.83
2018-12-24T05:01:25.041Z,5.55
2018-12-24T05:02:29.953Z,6.05
2018-12-24T05:03:35.146Z,6.15
2018-12-24T05:04:51.750Z,4.22
2018-12-24T05:05:56.663Z,6.35
2018-12-24T05:07:01.853Z,6.42
2018-12-24T05:09:30.705Z,6.50
2018-12-24T05:11:59.791Z,5.60
2018-12-24T05:13:04.705Z,7.35
2018-12-24T05:14:09.975Z,6.08
2018-12-24T05:15:14.869Z,6.30
2018-12-24T05:16:38.890Z,6.60
2018-12-24T05:19:08.072Z,6.35
2018-12-24T05:20:13.275Z,5.90
2018-12-24T05:21:18.178Z,6.00
2018-12-24T05:22:23.084Z,5.65
2018-12-24T05:23:47.380Z,6.00
2018-12-24T05:24:52.298Z,5.78
2018-12-24T05:25:57.193Z,6.90
2018-12-24T05:27:02.096Z,6.45
2018-12-24T05:28:26.246Z,6.55
2018-12-24T05:29:31.111Z,7.47
2018-12-24T05:30:36.032Z,6.95
2018-12-24T05:31:40.976Z,6.60
2018-12-24T05:32:45.897Z,7.05
2018-12-24T05:35:15.082Z,5.90
2018-12-24T05:37:50.141Z,7.08
2018-12-24T05:40:18.989Z,6.97
2018-12-24T05:41:23.886Z,6.45
2018-12-24T05:42:28.799Z,7.45
2018-12-24T05:43:33.710Z,6.28
2018-12-24T05:44:38.617Z,6.60
2018-12-24T05:50:25.969Z,6.67
2018-12-24T05:51:30.884Z,6.92
2018-12-24T05:52:35.789Z,7.25
2018-12-24T05:53:40.711Z,9.50
2018-12-24T05:54:45.632Z,6.92
2018-12-24T05:56:09.675Z,8.58
2018-12-24T05:57:14.835Z,7.33
2018-12-24T05:58:19.740Z,7.35
2018-12-24T05:59:24.648Z,7.67
2018-12-24T06:00:29.558Z,7.20
2018-12-24T06:01:34.512Z,7.53
2018-12-24T06:02:39.492Z,7.20
2018-12-24T06:03:44.663Z,8.03
2018-12-24T06:04:49.589Z,6.72
2018-12-24T06:05:54.496Z,8.88
2018-12-24T06:07:12.062Z,7.83
2018-12-24T06:08:16.991Z,7.50
2018-12-24T06:09:42.567Z,7.17
2018-12-24T06:10:47.484Z,6.90
2018-12-24T06:11:52.391Z,8.30
2018-12-24T06:12:57.309Z,7.70
2018-12-24T06:14:02.478Z,8.45
2018-12-24T06:15:07.409Z,8.60
2018-12-24T06:16:12.317Z,8.50
2018-12-24T06:17:17.559Z,7.90
2018-12-24T06:18:22.463Z,8.05
2018-12-24T06:19:27.377Z,8.18
2018-12-24T06:20:37.605Z,7.50
2018-12-24T06:21:58.574Z,7.03
2018-12-24T06:25:59.659Z,7.17
2018-12-24T06:30:11.978Z,5.92
2018-12-24T06:31:16.905Z,6.45
2018-12-24T06:32:22.144Z,6.50
2018-12-24T06:34:50.978Z,6.97
2018-12-24T06:38:49.435Z,6.15
2018-12-24T06:39:54.375Z,6.80
2018-12-24T06:40:59.279Z,6.42
2018-12-24T06:44:52.085Z,6.00
2018-12-24T06:45:56.992Z,6.55
2018-12-24T06:47:01.896Z,7.20
2018-12-24T06:48:07.075Z,6.62
2018-12-24T06:49:11.986Z,5.30
2018-12-24T06:50:17.214Z,6.28
2018-12-24T06:51:22.113Z,6.10
2018-12-24T06:52:27.279Z,6.35
2018-12-24T06:54:56.111Z,6.00
2018-12-24T06:56:01.047Z,5.83
2018-12-24T06:57:06.036Z,7.08
2018-12-24T06:58:11.551Z,5.97
2018-12-24T07:00:42.892Z,5.60
2018-12-24T07:01:47.811Z,4.90
2018-12-24T07:02:52.715Z,6.25
2018-12-24T07:03:57.655Z,5.87
2018-12-24T07:05:02.515Z,5.12
2018-12-24T07:06:07.766Z,5.40
2018-12-24T07:07:12.676Z,5.65
2018-12-24T07:09:55.514Z,5.47
2018-12-24T07:11:00.425Z,6.95
2018-12-24T07:12:05.344Z,5.50
2018-12-24T07:14:39.911Z,4.78
2018-12-24T07:15:45.132Z,5.35
2018-12-24T07:16:50.027Z,5.03
2018-12-24T07:17:54.940Z,6.10
2018-12-24T07:20:24.096Z,6.62
2018-12-24T07:21:29.005Z,5.05
2018-12-24T07:23:58.224Z,4.65
2018-12-24T07:25:03.119Z,4.28
2018-12-24T07:26:27.098Z,4.20
2018-12-24T07:28:59.178Z,4.87
2018-12-24T07:30:21.969Z,3.25
2018-12-24T07:31:26.876Z,4.00
2018-12-24T07:32:31.807Z,4.83
2018-12-24T07:33:36.706Z,4.58
2018-12-24T07:36:05.566Z,4.45
2018-12-24T07:37:10.470Z,3.40
2018-12-24T07:38:15.387Z,5.05
2018-12-24T07:42:08.547Z,3.30
2018-12-24T07:43:13.473Z,4.33
2018-12-24T07:44:24.092Z,2.83
2018-12-24T07:45:44.653Z,3.25
2018-12-24T07:49:37.447Z,3.58
2018-12-24T07:50:42.350Z,3.42
2018-12-24T07:51:47.255Z,3.60
2018-12-24T07:52:52.475Z,3.60
2018-12-24T07:53:57.943Z,3.92
2018-12-24T08:01:01.492Z,4.47
2018-12-24T08:08:11.556Z,2.80
2018-12-24T08:09:16.725Z,3.00
2018-12-24T08:10:21.910Z,3.40
2018-12-24T08:11:38.485Z,3.25
2018-12-24T08:12:43.773Z,2.92
2018-12-24T08:19:48.218Z,1.87
2018-12-24T08:22:17.081Z,2.40
2018-12-24T08:23:22.069Z,2.52
2018-12-24T08:25:51.261Z,2.40
2018-12-24T08:26:56.171Z,2.40
2018-12-24T08:28:01.102Z,3.10
2018-12-24T08:29:25.424Z,4.22
2018-12-24T08:30:30.328Z,2.10
2018-12-24T08:31:35.307Z,2.20
2018-12-24T08:32:59.276Z,3.55
2018-12-24T08:34:04.194Z,2.20
2018-12-24T08:35:09.118Z,2.55
2018-12-24T08:37:37.960Z,2.60
2018-12-24T08:39:01.986Z,1.90
2018-12-24T08:40:06.891Z,2.10
2018-12-24T08:41:30.795Z,2.52
2018-12-24T08:42:35.696Z,2.05
2018-12-24T08:43:40.884Z,2.25
2018-12-24T08:46:09.739Z,1.80
2018-12-24T08:47:14.735Z,2.10
2018-12-24T08:48:20.352Z,2.37
2018-12-24T08:52:13.142Z,2.33
2018-12-24T08:57:29.883Z,2.60
2018-12-24T08:58:34.787Z,2.15
2018-12-24T08:59:39.692Z,2.85
2018-12-24T09:00:44.589Z,2.98
2018-12-24T09:01:49.484Z,3.15
2018-12-24T09:04:24.971Z,3.30
2018-12-24T09:05:29.871Z,3.17
2018-12-24T09:06:35.084Z,3.08
2018-12-24T09:07:39.992Z,3.72
2018-12-24T09:08:44.952Z,3.10
2018-12-24T09:09:49.870Z,3.90
2018-12-24T09:12:21.261Z,3.70
2018-12-24T09:13:38.248Z,2.80
2018-12-24T09:14:50.187Z,3.50
2018-12-24T09:16:09.185Z,2.60
2018-12-24T09:17:14.103Z,3.42
2018-12-24T09:18:19.001Z,4.55
2018-12-24T09:20:52.562Z,3.60
2018-12-24T09:22:14.147Z,3.20
2018-12-24T09:23:19.059Z,4.30
2018-12-24T09:24:43.155Z,3.60
2018-12-24T09:27:12.631Z,3.45
2018-12-24T09:29:47.977Z,3.40
2018-12-24T09:30:53.521Z,4.40
2018-12-24T09:31:58.413Z,2.77
2018-12-24T09:33:03.400Z,2.58
2018-12-24T09:34:08.518Z,4.22
2018-12-24T09:35:13.450Z,3.62
2018-12-24T09:36:37.435Z,3.37
2018-12-24T09:37:42.343Z,3.65
2018-12-24T09:38:47.279Z,3.70
2018-12-24T09:41:16.143Z,4.97
2018-12-24T09:42:40.109Z,4.17
2018-12-24T09:43:45.051Z,4.67
2018-12-24T09:44:58.778Z,4.78
2018-12-24T09:46:19.958Z,2.83
2018-12-24T09:47:24.907Z,3.67
2018-12-24T09:48:49.026Z,3.95
2018-12-24T09:49:54.386Z,4.08
2018-12-24T09:50:59.373Z,4.25
2018-12-24T09:52:23.341Z,2.90
2018-12-24T09:53:28.247Z,4.03
2018-12-24T09:54:33.159Z,4.30
2018-12-24T09:57:02.054Z,4.30
2018-12-24T09:59:31.018Z,2.60
2018-12-24T10:00:55.059Z,3.92
2018-12-24T10:01:59.969Z,2.90
2018-12-24T10:03:26.434Z,3.90
2018-12-24T10:04:54.665Z,5.05
2018-12-24T10:06:21.220Z,5.42
2018-12-24T10:07:49.068Z,4.60
2018-12-24T10:10:38.499Z,4.83
2018-12-24T10:11:43.644Z,4.05
2018-12-24T10:12:48.837Z,3.72
2018-12-24T10:14:13.117Z,3.85
2018-12-24T10:15:29.740Z,4.30
2018-12-24T10:16:34.651Z,4.22
2018-12-24T10:17:39.845Z,4.22
2018-12-24T10:18:44.737Z,4.50
2018-12-24T10:19:49.648Z,3.77
2018-12-24T10:20:54.705Z,4.50
2018-12-24T10:21:59.563Z,4.42
2018-12-24T10:23:04.755Z,4.12
2018-12-24T10:24:09.658Z,4.65
2018-12-24T10:25:14.562Z,3.92
2018-12-24T10:27:43.484Z,4.70
2018-12-24T10:30:12.306Z,3.85
2018-12-24T10:31:17.231Z,3.55
2018-12-24T10:32:22.443Z,3.98
2018-12-24T10:34:56.949Z,3.20
2018-12-24T10:36:01.893Z,2.77
2018-12-24T10:37:25.979Z,2.85
2018-12-24T10:38:30.882Z,2.92
2018-12-24T10:39:36.100Z,2.50
2018-12-24T10:41:03.673Z,2.52
2018-12-24T10:43:32.541Z,2.42
2018-12-24T10:46:01.372Z,2.50
2018-12-24T10:48:36.362Z,2.00
2018-12-24T10:49:41.262Z,2.47
2018-12-24T10:50:46.488Z,2.08
2018-12-24T10:52:10.786Z,2.35
2018-12-24T10:54:58.855Z,2.00
2018-12-24T10:56:03.838Z,1.95
2018-12-24T10:57:08.743Z,1.80
2018-12-24T10:58:13.686Z,1.98
2018-12-24T11:00:42.542Z,2.37
2018-12-24T11:01:47.452Z,2.80
2018-12-24T11:03:11.552Z,3.00
2018-12-24T11:04:35.831Z,4.05
2018-12-24T11:05:40.725Z,3.40
2018-12-24T11:06:45.652Z,3.72
2018-12-24T11:07:50.550Z,2.70
2018-12-24T11:08:55.448Z,3.45
2018-12-24T11:10:00.494Z,2.60
2018-12-24T11:11:30.944Z,2.60
2018-12-24T11:12:35.862Z,3.10
2018-12-24T11:13:40.789Z,2.90
2018-12-24T11:14:45.685Z,3.20
2018-12-24T11:17:26.766Z,1.87
2018-12-24T11:20:00.016Z,1.90
2018-12-24T11:21:04.992Z,1.82
2018-12-24T11:22:09.926Z,1.75
2018-12-24T11:23:14.831Z,1.62
2018-12-24T11:24:19.739Z,1.40
2018-12-24T11:25:24.671Z,1.77
2018-12-24T11:26:29.581Z,2.02
2018-12-24T11:27:34.494Z,2.22
2018-12-24T11:28:39.386Z,1.55
2018-12-24T11:29:44.301Z,2.05
2018-12-24T11:30:49.229Z,2.02
2018-12-24T11:33:18.373Z,1.50
2018-12-24T11:34:42.407Z,3.35
2018-12-24T11:37:29.604Z,1.92
2018-12-24T11:38:53.006Z,1.87
2018-12-24T11:39:57.976Z,1.72
2018-12-24T11:42:26.821Z,1.87
2018-12-24T11:43:31.738Z,1.60
2018-12-24T11:44:36.665Z,1.65
2018-12-24T11:47:05.530Z,2.00
2018-12-24T11:48:10.452Z,2.10
2018-12-24T11:49:15.366Z,2.30
2018-12-24T11:50:39.721Z,1.98
2018-12-24T11:53:27.815Z,1.75
2018-12-24T11:54:32.728Z,1.60
2018-12-24T11:55:37.633Z,1.82
2018-12-24T11:58:24.573Z,1.90
2018-12-24T11:59:29.471Z,2.02
2018-12-24T12:00:34.386Z,2.00
2018-12-24T12:01:39.288Z,1.72
2018-12-24T12:03:03.254Z,2.33
2018-12-24T12:04:08.162Z,1.95
2018-12-24T12:05:32.199Z,2.27
2018-12-24T12:06:37.279Z,2.37
2018-12-24T12:08:01.391Z,1.72
2018-12-24T12:10:31.688Z,2.25
2018-12-24T12:13:03.048Z,1.80
2018-12-24T12:14:08.240Z,2.75
2018-12-24T12:15:13.177Z,2.17
2018-12-24T12:16:18.387Z,2.45
2018-12-24T12:17:23.639Z,2.25
2018-12-24T12:18:28.830Z,2.67
2018-12-24T12:19:45.975Z,3.00
2018-12-24T12:20:52.666Z,2.40
2018-12-24T12:22:17.605Z,2.33
2018-12-24T12:23:22.527Z,2.83
2018-12-24T12:24:27.452Z,2.67
2018-12-24T12:25:32.364Z,2.62
2018-12-24T12:26:37.274Z,2.40
2018-12-24T12:27:42.186Z,2.85
2018-12-24T12:32:17.869Z,2.60
2018-12-24T12:33:22.792Z,2.47
2018-12-24T12:35:51.623Z,3.08
2018-12-24T12:38:29.811Z,2.58
2018-12-24T12:39:51.423Z,3.10
2018-12-24T12:40:56.366Z,3.77
2018-12-24T12:42:01.501Z,3.98
2018-12-24T12:44:30.948Z,3.47
2018-12-24T12:47:18.851Z,3.00
2018-12-24T12:52:13.103Z,3.12
2018-12-24T12:53:18.016Z,3.30
2018-12-24T12:57:11.125Z,2.33
2018-12-24T12:58:16.383Z,2.67
2018-12-24T12:59:21.294Z,2.80
2018-12-24T13:00:26.208Z,2.70
2018-12-24T13:01:31.113Z,2.55
2018-12-24T13:02:36.033Z,3.55
2018-12-24T13:04:00.126Z,2.92
2018-12-24T13:05:44.684Z,3.10
2018-12-24T13:08:31.639Z,2.80
2018-12-24T13:09:36.531Z,2.85
2018-12-24T13:10:41.431Z,2.77
2018-12-24T13:11:46.336Z,3.10
2018-12-24T13:12:51.566Z,2.50
2018-12-24T13:14:15.857Z,3.30
2018-12-24T13:15:20.773Z,2.90
2018-12-24T13:16:25.683Z,2.37
2018-12-24T13:19:13.595Z,2.02
2018-12-24T13:20:25.027Z,2.37
2018-12-24T13:21:44.596Z,2.60
2018-12-24T13:22:49.516Z,2.50
2018-12-24T13:25:18.365Z,2.95
2018-12-24T13:26:23.291Z,2.87
2018-12-24T13:28:52.448Z,2.80
2018-12-24T13:29:57.703Z,2.80
2018-12-24T13:31:02.637Z,2.72
2018-12-24T13:32:07.542Z,2.33
2018-12-24T13:33:31.847Z,2.35
2018-12-24T13:34:36.828Z,2.95
2018-12-24T13:35:42.129Z,2.60
2018-12-24T13:36:47.370Z,3.02
2018-12-24T13:37:52.547Z,2.77
2018-12-24T13:38:57.436Z,3.20
2018-12-24T13:40:02.607Z,2.92
2018-12-24T13:41:07.793Z,3.10
2018-12-24T13:42:12.697Z,3.42
2018-12-24T13:43:17.612Z,3.00
2018-12-24T13:44:22.516Z,3.25
2018-12-24T13:46:51.347Z,3.87
2018-12-24T13:49:20.208Z,3.37
2018-12-24T13:51:49.049Z,3.55
2018-12-24T13:52:53.968Z,3.87
2018-12-24T13:53:58.878Z,3.42
2018-12-24T13:55:24.302Z,4.25
2018-12-24T13:56:29.206Z,3.20
2018-12-24T13:57:34.102Z,3.40
2018-12-24T13:58:39.010Z,3.33
2018-12-24T13:59:43.961Z,3.40
2018-12-24T14:00:49.220Z,3.90
2018-12-24T14:01:54.109Z,3.30
2018-12-24T14:04:25.451Z,3.33
2018-12-24T14:05:30.358Z,3.95
2018-12-24T14:06:35.291Z,3.10
2018-12-24T14:07:40.208Z,3.47
2018-12-24T14:10:30.611Z,3.42
2018-12-24T14:11:35.842Z,4.15
2018-12-24T14:12:40.766Z,3.87
2018-12-24T14:13:45.675Z,4.40
2018-12-24T14:15:30.237Z,3.80
2018-12-24T14:16:35.403Z,4.37
2018-12-24T14:17:40.305Z,3.95
2018-12-24T14:18:45.228Z,3.80
2018-12-24T14:20:09.367Z,4.12
2018-12-24T14:21:14.263Z,3.52
2018-12-24T14:22:19.454Z,4.05
2018-12-24T14:23:24.360Z,3.90
2018-12-24T14:24:41.184Z,4.22
2018-12-24T14:25:46.375Z,4.75
2018-12-24T14:28:15.501Z,3.77
2018-12-24T14:29:20.394Z,4.10
2018-12-24T14:30:25.553Z,3.80
2018-12-24T14:32:54.660Z,4.25
2018-12-24T14:33:59.577Z,3.80
2018-12-24T14:35:04.567Z,3.90
2018-12-24T14:36:09.497Z,4.00
2018-12-24T14:37:14.407Z,3.55
2018-12-24T14:38:19.363Z,4.00
2018-12-24T14:39:24.246Z,3.58
2018-12-24T14:40:29.149Z,4.33
2018-12-24T14:43:22.018Z,3.98
2018-12-24T14:44:26.915Z,3.90
2018-12-24T14:45:31.828Z,3.75
2018-12-24T14:46:37.059Z,4.45
2018-12-24T14:47:41.981Z,3.85
2018-12-24T14:48:46.883Z,4.08
2018-12-24T14:51:16.010Z,4.25
2018-12-24T14:52:20.902Z,4.33
2018-12-24T14:53:25.817Z,3.80
2018-12-24T14:57:18.592Z,3.65
2018-12-24T14:58:42.714Z,4.03
2018-12-24T14:59:47.619Z,4.05
2018-12-24T15:00:52.843Z,3.80
2018-12-24T15:01:57.734Z,4.20
2018-12-24T15:03:02.664Z,3.98
2018-12-24T15:04:07.592Z,3.67
2018-12-24T15:05:12.496Z,4.65
2018-12-24T15:06:17.388Z,3.90
2018-12-24T15:07:22.290Z,4.08
2018-12-24T15:08:27.221Z,3.87
2018-12-24T15:09:51.339Z,4.22
2018-12-24T15:11:15.311Z,4.17
2018-12-24T15:12:39.436Z,4.17
2018-12-24T15:13:44.333Z,4.35
2018-12-24T15:14:49.235Z,3.77
2018-12-24T15:15:54.465Z,4.03
2018-12-24T15:17:18.740Z,3.60
2018-12-24T15:18:23.658Z,4.85
2018-12-24T15:21:29.459Z,4.50
2018-12-24T15:22:34.371Z,6.33
2018-12-24T15:25:21.047Z,5.95
2018-12-24T15:26:37.630Z,4.33
2018-12-24T15:29:06.481Z,4.80
2018-12-24T15:31:35.329Z,11.75
2018-12-24T15:32:40.253Z,6.90
2018-12-24T15:33:45.164Z,6.33
2018-12-24T15:34:50.364Z,7.05
2018-12-24T15:35:55.277Z,7.05
2018-12-24T15:38:24.489Z,6.00
2018-12-24T15:39:29.387Z,5.20
2018-12-24T15:41:58.216Z,4.92
2018-12-24T15:43:03.441Z,4.95
2018-12-24T15:44:08.435Z,5.55
2018-12-24T15:45:13.702Z,5.03
2018-12-24T15:46:42.649Z,5.40
2018-12-24T15:48:04.309Z,5.45
2018-12-24T15:49:09.215Z,6.35
2018-12-24T15:51:44.228Z,5.30
2018-12-24T15:52:49.139Z,5.35
2018-12-24T15:53:54.043Z,5.62
2018-12-24T15:54:58.961Z,5.80
2018-12-24T15:56:22.963Z,5.75
2018-12-24T15:57:27.866Z,6.15
2018-12-24T15:58:32.762Z,5.67
2018-12-24T16:01:01.905Z,6.33
2018-12-24T16:05:19.156Z,4.92
2018-12-24T16:06:24.050Z,6.35
2018-12-24T16:07:28.952Z,5.87
2018-12-24T16:09:58.135Z,5.30
2018-12-24T16:11:22.131Z,5.05
2018-12-24T16:12:27.030Z,5.30
2018-12-24T16:13:31.935Z,5.72
2018-12-24T16:14:36.835Z,5.90
2018-12-24T16:15:42.079Z,6.22
2018-12-24T16:17:06.120Z,5.85
2018-12-24T16:18:11.028Z,5.80
2018-12-24T16:20:57.937Z,5.87
2018-12-24T16:22:02.876Z,5.60
2018-12-24T16:23:07.783Z,5.72
2018-12-24T16:24:12.675Z,6.45
2018-12-24T16:27:03.430Z,5.35
2018-12-24T16:28:20.075Z,5.60
2018-12-24T16:29:24.984Z,5.42
2018-12-24T16:32:15.548Z,5.53
2018-12-24T16:33:20.449Z,14.68
2018-12-24T16:34:25.372Z,10.72
2018-12-24T16:36:54.514Z,10.50
2018-12-24T16:37:59.424Z,11.80
2018-12-24T16:42:18.794Z,9.05
2018-12-24T16:46:36.087Z,5.80
2018-12-24T16:49:09.533Z,5.60
2018-12-24T16:50:14.426Z,5.20
2018-12-24T16:51:19.346Z,6.55
2018-12-24T16:52:43.318Z,7.85
2018-12-24T16:53:48.567Z,7.25
2018-12-24T16:56:17.400Z,6.65
2018-12-24T16:58:48.762Z,6.00
2018-12-24T16:59:53.974Z,6.33
2018-12-24T17:02:22.802Z,6.25
2018-12-24T17:03:27.701Z,6.35
2018-12-24T17:04:32.602Z,5.87
2018-12-24T17:05:37.508Z,5.80
2018-12-24T17:09:48.208Z,5.65
2018-12-24T17:12:23.774Z,6.15
2018-12-24T17:14:52.915Z,6.00
2018-12-24T17:16:16.951Z,5.55
2018-12-24T17:17:21.850Z,5.65
2018-12-24T17:18:27.085Z,6.78
2018-12-24T17:19:31.996Z,6.65
2018-12-24T17:20:36.897Z,7.45
2018-12-24T17:21:41.845Z,6.90
2018-12-24T17:24:10.924Z,7.20
2018-12-24T17:25:15.836Z,8.53
2018-12-24T17:26:20.737Z,8.20
2018-12-24T17:27:25.654Z,9.23
2018-12-24T17:30:06.896Z,7.70
2018-12-24T17:31:11.794Z,8.25
2018-12-24T17:32:16.705Z,10.30
2018-12-24T17:33:21.642Z,10.65
2018-12-24T17:34:26.550Z,11.57
2018-12-24T17:35:31.762Z,14.55
2018-12-24T17:36:36.664Z,10.75
2018-12-24T17:37:41.579Z,7.83
2018-12-24T17:40:16.521Z,8.85
2018-12-24T17:41:21.421Z,8.88
2018-12-24T17:42:46.012Z,8.20
2018-12-24T17:43:50.932Z,7.87
2018-12-24T17:44:56.190Z,8.58
2018-12-24T17:46:01.120Z,7.25
2018-12-24T17:47:06.024Z,7.37
2018-12-24T17:48:10.921Z,7.78
2018-12-24T17:49:16.187Z,7.65
2018-12-24T17:50:21.092Z,9.25
2018-12-24T17:52:55.908Z,8.60
2018-12-24T17:54:00.887Z,7.85
2018-12-24T17:56:31.025Z,7.22
2018-12-24T17:57:35.934Z,8.90
2018-12-24T18:00:11.339Z,6.97
2018-12-24T18:01:16.259Z,6.97
2018-12-24T18:02:21.504Z,7.53
2018-12-24T18:03:45.542Z,6.60
2018-12-24T18:06:14.410Z,6.60
2018-12-24T18:07:19.569Z,6.95
2018-12-24T18:09:49.060Z,7.87
2018-12-24T18:10:53.963Z,6.83
2018-12-24T18:13:48.142Z,7.12
2018-12-24T18:14:53.095Z,7.05
2018-12-24T18:15:57.997Z,6.25
2018-12-24T18:18:26.904Z,6.08
2018-12-24T18:19:31.812Z,6.53
2018-12-24T18:20:36.723Z,6.72
2018-12-24T18:21:41.616Z,7.35
2018-12-24T18:22:46.511Z,6.33
2018-12-24T18:24:10.550Z,6.00
2018-12-24T18:25:16.058Z,6.25
2018-12-24T18:26:21.287Z,6.47
2018-12-24T18:27:26.457Z,6.70
2018-12-24T18:28:31.360Z,6.80
2018-12-24T18:29:36.302Z,10.25
2018-12-24T18:30:41.529Z,9.23
2018-12-24T18:32:05.658Z,6.35
2018-12-24T18:33:11.179Z,6.55
2018-12-24T18:34:16.086Z,9.40
2018-12-24T18:36:50.394Z,10.85
2018-12-24T18:37:55.312Z,13.62
2018-12-24T18:39:00.212Z,11.00
2018-12-24T18:40:24.403Z,8.78
2018-12-24T18:41:29.323Z,8.70
2018-12-24T18:42:34.228Z,7.60
2018-12-24T18:43:39.123Z,7.50
2018-12-24T18:46:07.968Z,7.10
2018-12-24T18:47:12.887Z,8.30
2018-12-24T18:48:17.797Z,7.95
2018-12-24T18:53:34.772Z,7.55
2018-12-24T18:54:39.689Z,8.40
2018-12-24T18:55:44.605Z,8.40
2018-12-24T18:56:49.506Z,8.23
2018-12-24T18:57:54.535Z,7.37
2018-12-24T18:58:59.456Z,8.23
2018-12-24T19:00:24.476Z,9.60
2018-12-24T19:01:29.389Z,9.23
2018-12-24T19:02:34.298Z,8.50
2018-12-24T19:03:39.212Z,9.40
2018-12-24T19:04:44.123Z,8.95
2018-12-24T19:07:12.963Z,9.63
2018-12-24T19:08:18.191Z,9.40
2018-12-24T19:09:42.221Z,10.05
2018-12-24T19:10:47.184Z,8.98
2018-12-24T19:13:16.111Z,9.10
2018-12-24T19:14:21.374Z,11.20
2018-12-24T19:15:26.277Z,9.88
2018-12-24T19:16:31.203Z,9.85
2018-12-24T19:17:41.477Z,9.95
2018-12-24T19:22:08.225Z,10.60
2018-12-24T19:23:13.138Z,10.80
2018-12-24T19:24:18.058Z,10.58
2018-12-24T19:25:22.982Z,11.63
2018-12-24T19:26:28.231Z,10.20
2018-12-24T19:29:03.401Z,11.10
2018-12-24T19:30:09.244Z,11.10
2018-12-24T19:36:02.305Z,11.45
2018-12-24T19:37:07.227Z,11.12
2018-12-24T19:38:12.130Z,11.97
2018-12-24T19:39:17.024Z,11.12
2018-12-24T19:40:21.925Z,11.88
2018-12-24T19:41:26.859Z,11.53
2018-12-24T19:44:14.889Z,9.58
2018-12-24T19:45:19.811Z,9.93
2018-12-24T19:46:25.048Z,10.58
2018-12-24T19:49:18.291Z,10.08
2018-12-24T19:50:23.197Z,9.48
2018-12-24T19:51:28.095Z,9.75
2018-12-24T19:52:33.102Z,9.85
2018-12-24T19:55:02.009Z,9.70
2018-12-24T20:00:57.633Z,9.10
2018-12-24T20:02:02.844Z,8.53
2018-12-24T20:03:07.765Z,8.63
2018-12-24T20:04:12.667Z,8.93
2018-12-24T20:05:36.772Z,8.93
2018-12-24T20:06:41.696Z,7.62
2018-12-24T20:07:46.608Z,8.80
2018-12-24T20:09:10.903Z,9.45
2018-12-24T20:10:15.802Z,8.93
2018-12-24T20:11:20.703Z,8.78